sensor_id;sensor_type;location;lat;lon;timestamp;P1;durP1;ratioP1;P2;durP2;ratioP2
21107;SDS011;10712;52.944;9.098;2022-12-24T00:02:19;6.40;;;5.70;;
21107;SDS011;10712;52.944;9.098;2022-12-24T00:04:45;6.32;;;5.60;;
21107;SDS011;10712;52.944;9.098;2022-12-24T00:07:11;12.38;;;7.15;;
21107;SDS011;10712;52.944;9.098;2022-12-24T00:09:37;8.15;;;6.57;;
21107;SDS011;10712;52.944;9.098;2022-12-24T00:12:03;8.75;;;6.65;;
21107;SDS011;10712;52.944;9.098;2022-12-24T00:14:29;8.65;;;6.75;;
21107;SDS011;10712;52.944;9.098;2022-12-24T00:16:55;9.68;;;6.68;;
21107;SDS011;10712;52.944;9.098;2022-12-24T00:19:21;6.82;;;5.72;;
21107;SDS011;10712;52.944;9.098;2022-12-24T00:21:47;8.88;;;6.85;;
21107;SDS011;10712;52.944;9.098;2022-12-24T00:24:13;9.57;;;7.65;;
21107;SDS011;10712;52.944;9.098;2022-12-24T00:26:39;7.13;;;6.40;;
21107;SDS011;10712;52.944;9.098;2022-12-24T00:29:05;8.70;;;6.63;;
21107;SDS011;10712;52.944;9.098;2022-12-24T00:31:31;8.77;;;6.65;;
21107;SDS011;10712;52.944;9.098;2022-12-24T00:33:57;7.95;;;6.90;;
21107;SDS011;10712;52.944;9.098;2022-12-24T00:36:22;10.55;;;7.63;;
21107;SDS011;10712;52.944;9.098;2022-12-24T00:38:48;8.38;;;6.95;;
21107;SDS011;10712;52.944;9.098;2022-12-24T00:41:14;12.07;;;8.45;;
21107;SDS011;10712;52.944;9.098;2022-12-24T00:46:23;11.50;;;9.23;;
21107;SDS011;10712;52.944;9.098;2022-12-24T00:48:51;11.85;;;8.20;;
21107;SDS011;10712;52.944;9.098;2022-12-24T00:51:18;11.98;;;8.88;;
21107;SDS011;10712;52.944;9.098;2022-12-24T00:53:45;10.88;;;8.63;;
21107;SDS011;10712;52.944;9.098;2022-12-24T00:56:12;10.70;;;8.50;;
21107;SDS011;10712;52.944;9.098;2022-12-24T00:58:37;14.23;;;9.10;;
21107;SDS011;10712;52.944;9.098;2022-12-24T01:01:04;13.07;;;8.93;;
21107;SDS011;10712;52.944;9.098;2022-12-24T01:03:30;11.27;;;8.93;;
21107;SDS011;10712;52.944;9.098;2022-12-24T01:08:33;9.65;;;7.22;;
21107;SDS011;10712;52.944;9.098;2022-12-24T01:11:01;11.23;;;7.88;;
21107;SDS011;10712;52.944;9.098;2022-12-24T01:13:29;11.95;;;9.02;;
21107;SDS011;10712;52.944;9.098;2022-12-24T01:15:55;11.75;;;8.63;;
21107;SDS011;10712;52.944;9.098;2022-12-24T01:18:21;10.68;;;8.40;;
21107;SDS011;10712;52.944;9.098;2022-12-24T01:20:58;11.57;;;8.43;;
21107;SDS011;10712;52.944;9.098;2022-12-24T01:23:27;11.15;;;7.47;;
21107;SDS011;10712;52.944;9.098;2022-12-24T01:25:58;11.98;;;7.65;;
21107;SDS011;10712;52.944;9.098;2022-12-24T01:28:26;10.70;;;7.82;;
21107;SDS011;10712;52.944;9.098;2022-12-24T01:30:52;11.30;;;7.57;;
21107;SDS011;10712;52.944;9.098;2022-12-24T01:33:18;11.15;;;7.65;;
21107;SDS011;10712;52.944;9.098;2022-12-24T01:35:44;10.23;;;7.40;;
21107;SDS011;10712;52.944;9.098;2022-12-24T01:38:10;9.52;;;6.68;;
21107;SDS011;10712;52.944;9.098;2022-12-24T01:40:39;10.70;;;7.57;;
21107;SDS011;10712;52.944;9.098;2022-12-24T01:43:26;8.82;;;6.10;;
21107;SDS011;10712;52.944;9.098;2022-12-24T01:53:44;10.25;;;7.88;;
21107;SDS011;10712;52.944;9.098;2022-12-24T01:56:16;9.88;;;7.40;;
21107;SDS011;10712;52.944;9.098;2022-12-24T01:58:45;8.75;;;6.57;;
21107;SDS011;10712;52.944;9.098;2022-12-24T02:01:18;10.50;;;6.22;;
21107;SDS011;10712;52.944;9.098;2022-12-24T02:03:44;8.07;;;6.38;;
21107;SDS011;10712;52.944;9.098;2022-12-24T02:06:10;8.20;;;5.85;;
21107;SDS011;10712;52.944;9.098;2022-12-24T02:08:42;7.30;;;6.00;;
21107;SDS011;10712;52.944;9.098;2022-12-24T02:11:13;7.43;;;5.40;;
21107;SDS011;10712;52.944;9.098;2022-12-24T02:13:40;7.93;;;5.82;;
21107;SDS011;10712;52.944;9.098;2022-12-24T02:16:18;7.32;;;5.88;;
21107;SDS011;10712;52.944;9.098;2022-12-24T02:22:33;7.38;;;5.38;;
21107;SDS011;10712;52.944;9.098;2022-12-24T02:34:46;4.60;;;4.20;;
21107;SDS011;10712;52.944;9.098;2022-12-24T02:37:30;4.93;;;3.92;;
21107;SDS011;10712;52.944;9.098;2022-12-24T02:40:04;3.90;;;3.55;;
21107;SDS011;10712;52.944;9.098;2022-12-24T02:42:41;5.72;;;4.07;;
21107;SDS011;10712;52.944;9.098;2022-12-24T02:45:14;4.53;;;4.03;;
21107;SDS011;10712;52.944;9.098;2022-12-24T02:47:51;5.10;;;4.10;;
21107;SDS011;10712;52.944;9.098;2022-12-24T02:50:20;3.72;;;3.42;;
21107;SDS011;10712;52.944;9.098;2022-12-24T02:52:48;4.97;;;3.50;;
21107;SDS011;10712;52.944;9.098;2022-12-24T03:07:20;2.60;;;2.22;;
21107;SDS011;10712;52.944;9.098;2022-12-24T03:10:45;2.45;;;2.25;;
21107;SDS011;10712;52.944;9.098;2022-12-24T03:12:56;2.63;;;2.42;;
21107;SDS011;10712;52.944;9.098;2022-12-24T03:15:33;2.70;;;2.50;;
21107;SDS011;10712;52.944;9.098;2022-12-24T03:18:01;2.67;;;2.47;;
21107;SDS011;10712;52.944;9.098;2022-12-24T03:20:38;2.78;;;2.58;;
21107;SDS011;10712;52.944;9.098;2022-12-24T03:23:08;2.70;;;2.50;;
21107;SDS011;10712;52.944;9.098;2022-12-24T03:25:36;3.30;;;2.90;;
21107;SDS011;10712;52.944;9.098;2022-12-24T03:28:05;2.30;;;2.10;;
21107;SDS011;10712;52.944;9.098;2022-12-24T03:30:37;2.63;;;2.43;;
21107;SDS011;10712;52.944;9.098;2022-12-24T03:33:07;4.15;;;2.55;;
21107;SDS011;10712;52.944;9.098;2022-12-24T03:35:34;3.95;;;2.63;;
21107;SDS011;10712;52.944;9.098;2022-12-24T03:38:00;3.45;;;2.85;;
21107;SDS011;10712;52.944;9.098;2022-12-24T03:40:26;3.05;;;2.75;;
21107;SDS011;10712;52.944;9.098;2022-12-24T03:42:51;3.25;;;2.95;;
21107;SDS011;10712;52.944;9.098;2022-12-24T03:45:18;3.42;;;3.13;;
21107;SDS011;10712;52.944;9.098;2022-12-24T03:47:44;3.35;;;3.05;;
21107;SDS011;10712;52.944;9.098;2022-12-24T03:50:09;3.30;;;3.00;;
21107;SDS011;10712;52.944;9.098;2022-12-24T03:52:35;2.97;;;2.78;;
21107;SDS011;10712;52.944;9.098;2022-12-24T03:55:01;2.97;;;2.65;;
21107;SDS011;10712;52.944;9.098;2022-12-24T03:57:28;3.40;;;3.10;;
21107;SDS011;10712;52.944;9.098;2022-12-24T03:59:53;2.70;;;2.50;;
21107;SDS011;10712;52.944;9.098;2022-12-24T04:02:19;3.90;;;3.53;;
21107;SDS011;10712;52.944;9.098;2022-12-24T04:04:45;2.90;;;2.67;;
21107;SDS011;10712;52.944;9.098;2022-12-24T04:07:11;3.50;;;3.20;;
21107;SDS011;10712;52.944;9.098;2022-12-24T04:09:37;3.33;;;2.90;;
21107;SDS011;10712;52.944;9.098;2022-12-24T04:12:03;2.85;;;2.60;;
21107;SDS011;10712;52.944;9.098;2022-12-24T04:14:29;3.03;;;2.72;;
21107;SDS011;10712;52.944;9.098;2022-12-24T04:16:55;2.65;;;2.45;;
21107;SDS011;10712;52.944;9.098;2022-12-24T04:19:21;3.25;;;2.95;;
21107;SDS011;10712;52.944;9.098;2022-12-24T04:21:46;3.08;;;2.80;;
21107;SDS011;10712;52.944;9.098;2022-12-24T04:24:12;3.30;;;3.00;;
21107;SDS011;10712;52.944;9.098;2022-12-24T04:26:38;2.83;;;2.63;;
21107;SDS011;10712;52.944;9.098;2022-12-24T04:29:04;4.53;;;3.05;;
21107;SDS011;10712;52.944;9.098;2022-12-24T04:31:30;3.03;;;2.75;;
21107;SDS011;10712;52.944;9.098;2022-12-24T04:33:55;2.97;;;2.78;;
21107;SDS011;10712;52.944;9.098;2022-12-24T04:36:21;3.70;;;2.97;;
21107;SDS011;10712;52.944;9.098;2022-12-24T04:38:47;3.50;;;3.20;;
21107;SDS011;10712;52.944;9.098;2022-12-24T04:41:15;2.60;;;2.40;;
21107;SDS011;10712;52.944;9.098;2022-12-24T04:43:46;3.50;;;3.20;;
21107;SDS011;10712;52.944;9.098;2022-12-24T04:46:13;3.60;;;3.30;;
21107;SDS011;10712;52.944;9.098;2022-12-24T04:48:48;3.75;;;3.45;;
21107;SDS011;10712;52.944;9.098;2022-12-24T04:51:17;4.43;;;4.03;;
21107;SDS011;10712;52.944;9.098;2022-12-24T04:53:44;4.13;;;3.78;;
21107;SDS011;10712;52.944;9.098;2022-12-24T04:56:14;5.35;;;4.18;;
21107;SDS011;10712;52.944;9.098;2022-12-24T04:58:41;4.67;;;4.27;;
21107;SDS011;10712;52.944;9.098;2022-12-24T05:01:10;6.35;;;5.40;;
21107;SDS011;10712;52.944;9.098;2022-12-24T05:03:40;6.85;;;5.88;;
21107;SDS011;10712;52.944;9.098;2022-12-24T05:06:07;5.93;;;5.32;;
21107;SDS011;10712;52.944;9.098;2022-12-24T05:08:37;6.68;;;5.97;;
21107;SDS011;10712;52.944;9.098;2022-12-24T05:11:04;8.57;;;6.70;;
21107;SDS011;10712;52.944;9.098;2022-12-24T05:13:31;6.70;;;6.00;;
21107;SDS011;10712;52.944;9.098;2022-12-24T05:15:57;8.27;;;6.80;;
21107;SDS011;10712;52.944;9.098;2022-12-24T05:18:23;7.93;;;6.82;;
21107;SDS011;10712;52.944;9.098;2022-12-24T05:20:49;8.68;;;7.78;;
21107;SDS011;10712;52.944;9.098;2022-12-24T05:23:17;13.88;;;10.23;;
21107;SDS011;10712;52.944;9.098;2022-12-24T05:26:18;13.88;;;10.10;;
21107;SDS011;10712;52.944;9.098;2022-12-24T05:29:04;17.63;;;12.25;;
21107;SDS011;10712;52.944;9.098;2022-12-24T05:31:31;16.83;;;13.27;;
21107;SDS011;10712;52.944;9.098;2022-12-24T05:33:59;17.73;;;12.40;;
21107;SDS011;10712;52.944;9.098;2022-12-24T05:36:25;18.92;;;13.82;;
21107;SDS011;10712;52.944;9.098;2022-12-24T05:38:51;15.75;;;12.57;;
21107;SDS011;10712;52.944;9.098;2022-12-24T05:41:17;19.35;;;14.35;;
21107;SDS011;10712;52.944;9.098;2022-12-24T05:43:43;20.85;;;14.75;;
21107;SDS011;10712;52.944;9.098;2022-12-24T05:46:10;21.95;;;15.32;;
21107;SDS011;10712;52.944;9.098;2022-12-24T05:48:39;22.67;;;16.25;;
21107;SDS011;10712;52.944;9.098;2022-12-24T05:51:07;24.83;;;16.75;;
21107;SDS011;10712;52.944;9.098;2022-12-24T05:53:36;18.83;;;14.50;;
21107;SDS011;10712;52.944;9.098;2022-12-24T05:56:09;22.08;;;15.88;;
21107;SDS011;10712;52.944;9.098;2022-12-24T05:58:43;24.52;;;15.02;;
21107;SDS011;10712;52.944;9.098;2022-12-24T06:01:09;20.33;;;15.38;;
21107;SDS011;10712;52.944;9.098;2022-12-24T06:03:38;22.33;;;15.57;;
21107;SDS011;10712;52.944;9.098;2022-12-24T06:06:09;21.35;;;14.18;;
21107;SDS011;10712;52.944;9.098;2022-12-24T06:08:39;21.38;;;15.27;;
21107;SDS011;10712;52.944;9.098;2022-12-24T06:11:07;25.13;;;16.90;;
21107;SDS011;10712;52.944;9.098;2022-12-24T06:13:36;24.63;;;17.33;;
21107;SDS011;10712;52.944;9.098;2022-12-24T06:16:04;21.92;;;15.52;;
21107;SDS011;10712;52.944;9.098;2022-12-24T06:18:33;23.80;;;16.13;;
21107;SDS011;10712;52.944;9.098;2022-12-24T06:21:00;22.00;;;15.23;;
21107;SDS011;10712;52.944;9.098;2022-12-24T06:23:29;24.55;;;14.85;;
21107;SDS011;10712;52.944;9.098;2022-12-24T06:25:58;19.98;;;14.07;;
21107;SDS011;10712;52.944;9.098;2022-12-24T06:28:25;22.20;;;13.50;;
21107;SDS011;10712;52.944;9.098;2022-12-24T06:30:56;20.20;;;12.57;;
21107;SDS011;10712;52.944;9.098;2022-12-24T06:33:22;16.85;;;12.07;;
21107;SDS011;10712;52.944;9.098;2022-12-24T06:35:48;18.63;;;11.00;;
21107;SDS011;10712;52.944;9.098;2022-12-24T06:38:14;16.83;;;9.68;;
21107;SDS011;10712;52.944;9.098;2022-12-24T06:40:41;20.83;;;9.60;;
21107;SDS011;10712;52.944;9.098;2022-12-24T06:43:10;16.83;;;8.82;;
21107;SDS011;10712;52.944;9.098;2022-12-24T06:45:37;23.83;;;8.50;;
21107;SDS011;10712;52.944;9.098;2022-12-24T06:48:04;23.98;;;8.00;;
21107;SDS011;10712;52.944;9.098;2022-12-24T06:50:34;20.45;;;7.22;;
21107;SDS011;10712;52.944;9.098;2022-12-24T06:53:00;31.10;;;6.43;;
21107;SDS011;10712;52.944;9.098;2022-12-24T06:55:26;18.60;;;6.80;;
21107;SDS011;10712;52.944;9.098;2022-12-24T06:57:52;29.33;;;6.57;;
21107;SDS011;10712;52.944;9.098;2022-12-24T07:00:18;25.73;;;5.13;;
21107;SDS011;10712;52.944;9.098;2022-12-24T07:02:45;31.42;;;6.57;;
21107;SDS011;10712;52.944;9.098;2022-12-24T07:05:12;22.58;;;7.07;;
21107;SDS011;10712;52.944;9.098;2022-12-24T07:07:40;28.92;;;6.68;;
21107;SDS011;10712;52.944;9.098;2022-12-24T07:10:10;21.13;;;6.35;;
21107;SDS011;10712;52.944;9.098;2022-12-24T07:12:39;12.95;;;4.13;;
21107;SDS011;10712;52.944;9.098;2022-12-24T07:15:06;30.10;;;7.10;;
21107;SDS011;10712;52.944;9.098;2022-12-24T07:17:33;20.60;;;5.53;;
21107;SDS011;10712;52.944;9.098;2022-12-24T07:19:59;22.90;;;6.10;;
21107;SDS011;10712;52.944;9.098;2022-12-24T07:22:25;23.38;;;5.22;;
21107;SDS011;10712;52.944;9.098;2022-12-24T07:24:51;23.58;;;6.57;;
21107;SDS011;10712;52.944;9.098;2022-12-24T07:27:16;35.30;;;7.88;;
21107;SDS011;10712;52.944;9.098;2022-12-24T07:29:42;23.48;;;4.75;;
21107;SDS011;10712;52.944;9.098;2022-12-24T07:32:08;39.50;;;5.85;;
21107;SDS011;10712;52.944;9.098;2022-12-24T07:34:34;25.83;;;4.80;;
21107;SDS011;10712;52.944;9.098;2022-12-24T07:37:00;18.60;;;4.07;;
21107;SDS011;10712;52.944;9.098;2022-12-24T07:39:26;18.27;;;4.40;;
21107;SDS011;10712;52.944;9.098;2022-12-24T07:41:52;24.95;;;4.25;;
21107;SDS011;10712;52.944;9.098;2022-12-24T07:44:18;22.42;;;3.97;;
21107;SDS011;10712;52.944;9.098;2022-12-24T07:46:44;18.73;;;4.05;;
21107;SDS011;10712;52.944;9.098;2022-12-24T07:49:10;16.42;;;4.25;;
21107;SDS011;10712;52.944;9.098;2022-12-24T07:51:36;17.30;;;3.78;;
21107;SDS011;10712;52.944;9.098;2022-12-24T07:54:02;17.67;;;3.95;;
21107;SDS011;10712;52.944;9.098;2022-12-24T07:56:29;28.45;;;4.85;;
21107;SDS011;10712;52.944;9.098;2022-12-24T07:58:56;13.85;;;3.40;;
21107;SDS011;10712;52.944;9.098;2022-12-24T08:01:22;17.90;;;3.42;;
21107;SDS011;10712;52.944;9.098;2022-12-24T08:03:48;14.50;;;4.18;;
21107;SDS011;10712;52.944;9.098;2022-12-24T08:06:21;12.75;;;3.20;;
21107;SDS011;10712;52.944;9.098;2022-12-24T08:08:48;13.13;;;3.97;;
21107;SDS011;10712;52.944;9.098;2022-12-24T08:11:14;15.38;;;3.40;;
21107;SDS011;10712;52.944;9.098;2022-12-24T08:13:41;11.60;;;3.85;;
21107;SDS011;10712;52.944;9.098;2022-12-24T08:16:07;17.58;;;4.20;;
21107;SDS011;10712;52.944;9.098;2022-12-24T08:18:33;11.85;;;3.22;;
21107;SDS011;10712;52.944;9.098;2022-12-24T08:20:59;48.00;;;21.48;;
21107;SDS011;10712;52.944;9.098;2022-12-24T08:23:25;19.98;;;6.75;;
21107;SDS011;10712;52.944;9.098;2022-12-24T08:25:51;20.70;;;10.50;;
21107;SDS011;10712;52.944;9.098;2022-12-24T08:28:17;20.00;;;7.55;;
21107;SDS011;10712;52.944;9.098;2022-12-24T08:30:46;23.83;;;6.47;;
21107;SDS011;10712;52.944;9.098;2022-12-24T08:33:15;21.35;;;4.63;;
21107;SDS011;10712;52.944;9.098;2022-12-24T08:35:49;19.05;;;5.22;;
21107;SDS011;10712;52.944;9.098;2022-12-24T08:38:18;22.50;;;5.47;;
21107;SDS011;10712;52.944;9.098;2022-12-24T08:40:44;21.35;;;5.15;;
21107;SDS011;10712;52.944;9.098;2022-12-24T08:43:17;26.67;;;5.93;;
21107;SDS011;10712;52.944;9.098;2022-12-24T08:45:45;35.13;;;9.23;;
21107;SDS011;10712;52.944;9.098;2022-12-24T08:48:13;36.40;;;8.10;;
21107;SDS011;10712;52.944;9.098;2022-12-24T08:50:40;55.92;;;22.20;;
21107;SDS011;10712;52.944;9.098;2022-12-24T08:53:07;28.83;;;10.35;;
21107;SDS011;10712;52.944;9.098;2022-12-24T08:55:34;21.73;;;7.65;;
21107;SDS011;10712;52.944;9.098;2022-12-24T08:58:01;25.02;;;8.63;;
21107;SDS011;10712;52.944;9.098;2022-12-24T09:00:28;32.95;;;8.13;;
21107;SDS011;10712;52.944;9.098;2022-12-24T09:02:54;20.90;;;5.45;;
21107;SDS011;10712;52.944;9.098;2022-12-24T09:05:21;21.60;;;5.60;;
21107;SDS011;10712;52.944;9.098;2022-12-24T09:07:47;30.15;;;7.50;;
21107;SDS011;10712;52.944;9.098;2022-12-24T09:10:13;20.55;;;7.22;;
21107;SDS011;10712;52.944;9.098;2022-12-24T09:12:39;19.25;;;6.38;;
21107;SDS011;10712;52.944;9.098;2022-12-24T09:15:05;27.70;;;6.97;;
21107;SDS011;10712;52.944;9.098;2022-12-24T09:17:32;21.67;;;5.90;;
21107;SDS011;10712;52.944;9.098;2022-12-24T09:20:00;32.53;;;6.70;;
21107;SDS011;10712;52.944;9.098;2022-12-24T09:22:26;16.67;;;5.78;;
21107;SDS011;10712;52.944;9.098;2022-12-24T09:24:52;22.92;;;5.25;;
21107;SDS011;10712;52.944;9.098;2022-12-24T09:27:19;32.13;;;6.78;;
21107;SDS011;10712;52.944;9.098;2022-12-24T09:29:44;35.50;;;7.57;;
21107;SDS011;10712;52.944;9.098;2022-12-24T09:32:10;33.03;;;8.65;;
21107;SDS011;10712;52.944;9.098;2022-12-24T09:34:40;26.85;;;9.40;;
21107;SDS011;10712;52.944;9.098;2022-12-24T09:37:06;35.15;;;8.80;;
21107;SDS011;10712;52.944;9.098;2022-12-24T09:39:32;25.15;;;8.18;;
21107;SDS011;10712;52.944;9.098;2022-12-24T09:45:05;40.08;;;8.88;;
21107;SDS011;10712;52.944;9.098;2022-12-24T09:52:56;37.08;;;8.38;;
21107;SDS011;10712;52.944;9.098;2022-12-24T09:55:40;41.72;;;8.98;;
21107;SDS011;10712;52.944;9.098;2022-12-24T09:58:18;38.95;;;7.72;;
21107;SDS011;10712;52.944;9.098;2022-12-24T10:00:55;46.35;;;9.57;;
21107;SDS011;10712;52.944;9.098;2022-12-24T10:03:21;37.90;;;8.43;;
21107;SDS011;10712;52.944;9.098;2022-12-24T10:05:54;35.20;;;7.95;;
21107;SDS011;10712;52.944;9.098;2022-12-24T10:22:32;24.90;;;6.33;;
21107;SDS011;10712;52.944;9.098;2022-12-24T10:28:23;48.25;;;19.33;;
21107;SDS011;10712;52.944;9.098;2022-12-24T10:31:00;35.83;;;8.20;;
21107;SDS011;10712;52.944;9.098;2022-12-24T10:33:42;28.85;;;7.20;;
21107;SDS011;10712;52.944;9.098;2022-12-24T10:36:16;25.80;;;6.85;;
21107;SDS011;10712;52.944;9.098;2022-12-24T10:38:48;37.58;;;7.82;;
21107;SDS011;10712;52.944;9.098;2022-12-24T10:41:14;28.40;;;6.45;;
21107;SDS011;10712;52.944;9.098;2022-12-24T10:43:41;23.25;;;6.78;;
21107;SDS011;10712;52.944;9.098;2022-12-24T10:46:17;29.20;;;7.68;;
21107;SDS011;10712;52.944;9.098;2022-12-24T10:54:24;32.20;;;5.85;;
21107;SDS011;10712;52.944;9.098;2022-12-24T10:56:59;19.88;;;6.45;;
21107;SDS011;10712;52.944;9.098;2022-12-24T10:59:41;25.35;;;6.05;;
21107;SDS011;10712;52.944;9.098;2022-12-24T11:04:57;31.33;;;7.35;;
21107;SDS011;10712;52.944;9.098;2022-12-24T11:07:26;27.67;;;7.50;;
21107;SDS011;10712;52.944;9.098;2022-12-24T11:10:04;31.67;;;10.75;;
21107;SDS011;10712;52.944;9.098;2022-12-24T11:12:38;35.83;;;9.35;;
21107;SDS011;10712;52.944;9.098;2022-12-24T11:15:17;32.13;;;7.57;;
21107;SDS011;10712;52.944;9.098;2022-12-24T11:17:52;30.95;;;7.45;;
21107;SDS011;10712;52.944;9.098;2022-12-24T11:20:26;30.15;;;7.47;;
21107;SDS011;10712;52.944;9.098;2022-12-24T11:22:54;26.90;;;7.38;;
21107;SDS011;10712;52.944;9.098;2022-12-24T11:25:30;33.70;;;7.25;;
21107;SDS011;10712;52.944;9.098;2022-12-24T11:28:11;25.08;;;6.97;;
21107;SDS011;10712;52.944;9.098;2022-12-24T11:31:38;30.40;;;6.57;;
21107;SDS011;10712;52.944;9.098;2022-12-24T11:33:46;25.00;;;6.50;;
21107;SDS011;10712;52.944;9.098;2022-12-24T11:36:16;27.33;;;6.22;;
21107;SDS011;10712;52.944;9.098;2022-12-24T11:38:57;26.42;;;6.32;;
21107;SDS011;10712;52.944;9.098;2022-12-24T11:41:23;22.17;;;5.70;;
21107;SDS011;10712;52.944;9.098;2022-12-24T11:43:51;24.10;;;5.90;;
21107;SDS011;10712;52.944;9.098;2022-12-24T11:46:41;21.98;;;6.10;;
21107;SDS011;10712;52.944;9.098;2022-12-24T11:49:23;23.42;;;6.30;;
21107;SDS011;10712;52.944;9.098;2022-12-24T11:52:16;26.33;;;6.60;;
21107;SDS011;10712;52.944;9.098;2022-12-24T11:57:56;27.48;;;9.52;;
21107;SDS011;10712;52.944;9.098;2022-12-24T12:00:29;33.00;;;7.85;;
21107;SDS011;10712;52.944;9.098;2022-12-24T12:02:56;25.17;;;7.88;;
21107;SDS011;10712;52.944;9.098;2022-12-24T12:05:27;28.93;;;8.20;;
21107;SDS011;10712;52.944;9.098;2022-12-24T12:08:05;33.83;;;10.05;;
21107;SDS011;10712;52.944;9.098;2022-12-24T12:10:41;28.83;;;9.40;;
21107;SDS011;10712;52.944;9.098;2022-12-24T12:13:19;20.23;;;7.93;;
21107;SDS011;10712;52.944;9.098;2022-12-24T12:19:39;38.65;;;11.45;;
21107;SDS011;10712;52.944;9.098;2022-12-24T12:22:24;46.65;;;14.65;;
21107;SDS011;10712;52.944;9.098;2022-12-24T12:25:04;42.10;;;11.80;;
21107;SDS011;10712;52.944;9.098;2022-12-24T12:27:45;35.45;;;10.68;;
21107;SDS011;10712;52.944;9.098;2022-12-24T12:35:50;41.88;;;13.43;;
21107;SDS011;10712;52.944;9.098;2022-12-24T12:38:21;31.98;;;11.55;;
21107;SDS011;10712;52.944;9.098;2022-12-24T12:41:14;35.72;;;12.57;;
21107;SDS011;10712;52.944;9.098;2022-12-24T12:44:18;34.90;;;13.05;;
21107;SDS011;10712;52.944;9.098;2022-12-24T12:46:53;38.67;;;12.85;;
21107;SDS011;10712;52.944;9.098;2022-12-24T12:55:49;29.70;;;10.00;;
21107;SDS011;10712;52.944;9.098;2022-12-24T12:58:47;29.00;;;11.23;;
21107;SDS011;10712;52.944;9.098;2022-12-24T13:15:56;27.58;;;14.07;;
21107;SDS011;10712;52.944;9.098;2022-12-24T13:21:03;29.63;;;11.77;;
21107;SDS011;10712;52.944;9.098;2022-12-24T13:23:29;30.50;;;11.02;;
21107;SDS011;10712;52.944;9.098;2022-12-24T13:25:56;27.45;;;10.50;;
21107;SDS011;10712;52.944;9.098;2022-12-24T13:30:52;31.80;;;9.80;;
21107;SDS011;10712;52.944;9.098;2022-12-24T13:44:13;30.00;;;7.88;;
21107;SDS011;10712;52.944;9.098;2022-12-24T13:46:49;24.48;;;8.20;;
21107;SDS011;10712;52.944;9.098;2022-12-24T13:54:41;16.30;;;6.97;;
21107;SDS011;10712;52.944;9.098;2022-12-24T13:57:43;13.70;;;6.43;;
21107;SDS011;10712;52.944;9.098;2022-12-24T14:01:12;24.50;;;7.78;;
21107;SDS011;10712;52.944;9.098;2022-12-24T14:06:09;17.65;;;5.55;;
21107;SDS011;10712;52.944;9.098;2022-12-24T14:08:47;19.52;;;5.28;;
21107;SDS011;10712;52.944;9.098;2022-12-24T14:11:20;20.92;;;4.93;;
21107;SDS011;10712;52.944;9.098;2022-12-24T14:16:46;19.08;;;4.22;;
21107;SDS011;10712;52.944;9.098;2022-12-24T14:19:25;19.80;;;8.05;;
21107;SDS011;10712;52.944;9.098;2022-12-24T14:25:17;16.02;;;4.53;;
21107;SDS011;10712;52.944;9.098;2022-12-24T14:28:03;18.02;;;5.40;;
21107;SDS011;10712;52.944;9.098;2022-12-24T14:30:36;24.75;;;4.75;;
21107;SDS011;10712;52.944;9.098;2022-12-24T14:33:02;16.15;;;5.15;;
21107;SDS011;10712;52.944;9.098;2022-12-24T14:35:28;18.95;;;4.03;;
21107;SDS011;10712;52.944;9.098;2022-12-24T14:38:10;14.93;;;3.85;;
21107;SDS011;10712;52.944;9.098;2022-12-24T14:43:45;19.40;;;3.63;;
21107;SDS011;10712;52.944;9.098;2022-12-24T14:55:39;14.70;;;4.45;;
21107;SDS011;10712;52.944;9.098;2022-12-24T15:00:59;9.15;;;3.63;;
21107;SDS011;10712;52.944;9.098;2022-12-24T15:03:42;15.43;;;3.88;;
21107;SDS011;10712;52.944;9.098;2022-12-24T15:06:08;11.60;;;3.55;;
21107;SDS011;10712;52.944;9.098;2022-12-24T15:08:39;16.10;;;3.83;;
21107;SDS011;10712;52.944;9.098;2022-12-24T15:11:16;22.42;;;5.15;;
21107;SDS011;10712;52.944;9.098;2022-12-24T15:13:48;23.27;;;5.80;;
21107;SDS011;10712;52.944;9.098;2022-12-24T15:19:00;27.10;;;6.22;;
21107;SDS011;10712;52.944;9.098;2022-12-24T15:21:33;21.80;;;5.30;;
21107;SDS011;10712;52.944;9.098;2022-12-24T15:24:05;16.80;;;4.85;;
21107;SDS011;10712;52.944;9.098;2022-12-24T15:27:00;19.55;;;5.97;;
21107;SDS011;10712;52.944;9.098;2022-12-24T15:29:38;17.33;;;5.18;;
21107;SDS011;10712;52.944;9.098;2022-12-24T15:32:10;17.27;;;5.25;;
21107;SDS011;10712;52.944;9.098;2022-12-24T15:34:40;18.83;;;5.78;;
21107;SDS011;10712;52.944;9.098;2022-12-24T15:39:54;36.28;;;11.23;;
21107;SDS011;10712;52.944;9.098;2022-12-24T15:42:24;33.50;;;13.00;;
21107;SDS011;10712;52.944;9.098;2022-12-24T15:45:06;29.48;;;9.57;;
21107;SDS011;10712;52.944;9.098;2022-12-24T15:47:45;26.05;;;6.82;;
21107;SDS011;10712;52.944;9.098;2022-12-24T15:50:18;21.33;;;8.35;;
21107;SDS011;10712;52.944;9.098;2022-12-24T15:53:07;24.20;;;9.93;;
21107;SDS011;10712;52.944;9.098;2022-12-24T15:56:26;17.92;;;9.00;;
21107;SDS011;10712;52.944;9.098;2022-12-24T15:58:39;19.83;;;8.70;;
21107;SDS011;10712;52.944;9.098;2022-12-24T16:03:37;19.93;;;6.43;;
21107;SDS011;10712;52.944;9.098;2022-12-24T16:06:05;20.42;;;6.35;;
21107;SDS011;10712;52.944;9.098;2022-12-24T16:08:37;15.70;;;5.55;;
21107;SDS011;10712;52.944;9.098;2022-12-24T16:16:29;53.55;;;27.85;;
21107;SDS011;10712;52.944;9.098;2022-12-24T16:19:20;42.45;;;23.20;;
21107;SDS011;10712;52.944;9.098;2022-12-24T16:21:50;24.73;;;11.10;;
21107;SDS011;10712;52.944;9.098;2022-12-24T16:24:28;26.13;;;8.00;;
21107;SDS011;10712;52.944;9.098;2022-12-24T16:26:56;24.05;;;7.63;;
21107;SDS011;10712;52.944;9.098;2022-12-24T16:29:22;28.58;;;6.53;;
21107;SDS011;10712;52.944;9.098;2022-12-24T16:31:52;22.95;;;7.28;;
21107;SDS011;10712;52.944;9.098;2022-12-24T16:34:24;22.92;;;5.93;;
21107;SDS011;10712;52.944;9.098;2022-12-24T16:36:54;20.02;;;6.43;;
21107;SDS011;10712;52.944;9.098;2022-12-24T16:41:49;18.38;;;5.72;;
21107;SDS011;10712;52.944;9.098;2022-12-24T16:44:38;20.27;;;5.18;;
21107;SDS011;10712;52.944;9.098;2022-12-24T16:47:08;16.23;;;6.15;;
21107;SDS011;10712;52.944;9.098;2022-12-24T16:49:38;14.05;;;5.18;;
21107;SDS011;10712;52.944;9.098;2022-12-24T16:52:10;24.42;;;6.50;;
21107;SDS011;10712;52.944;9.098;2022-12-24T16:54:42;12.82;;;4.68;;
21107;SDS011;10712;52.944;9.098;2022-12-24T16:57:09;14.50;;;4.95;;
21107;SDS011;10712;52.944;9.098;2022-12-24T16:59:35;19.67;;;5.38;;
21107;SDS011;10712;52.944;9.098;2022-12-24T17:02:02;20.90;;;5.32;;
21107;SDS011;10712;52.944;9.098;2022-12-24T17:04:32;17.70;;;4.85;;
21107;SDS011;10712;52.944;9.098;2022-12-24T17:06:58;12.75;;;4.28;;
21107;SDS011;10712;52.944;9.098;2022-12-24T17:09:24;12.88;;;4.03;;
21107;SDS011;10712;52.944;9.098;2022-12-24T17:11:51;13.07;;;3.67;;
21107;SDS011;10712;52.944;9.098;2022-12-24T17:14:16;16.10;;;4.07;;
21107;SDS011;10712;52.944;9.098;2022-12-24T17:16:42;18.52;;;5.40;;
21107;SDS011;10712;52.944;9.098;2022-12-24T17:19:08;12.32;;;3.90;;
21107;SDS011;10712;52.944;9.098;2022-12-24T17:21:34;16.30;;;5.10;;
21107;SDS011;10712;52.944;9.098;2022-12-24T17:24:00;29.67;;;15.20;;
21107;SDS011;10712;52.944;9.098;2022-12-24T17:26:27;43.67;;;27.50;;
21107;SDS011;10712;52.944;9.098;2022-12-24T17:28:53;41.25;;;21.40;;
21107;SDS011;10712;52.944;9.098;2022-12-24T17:31:21;30.67;;;13.05;;
21107;SDS011;10712;52.944;9.098;2022-12-24T17:33:48;17.30;;;10.48;;
21107;SDS011;10712;52.944;9.098;2022-12-24T17:36:16;17.48;;;6.07;;
21107;SDS011;10712;52.944;9.098;2022-12-24T17:38:43;13.20;;;4.03;;
21107;SDS011;10712;52.944;9.098;2022-12-24T17:41:10;20.63;;;4.25;;
21107;SDS011;10712;52.944;9.098;2022-12-24T17:43:38;19.77;;;4.50;;